Time,TemperatureF,DewpointF,PressureIn,WindDirection,WindDirectionDegrees,WindSpeedMPH,WindSpeedGustMPH,Humidity,HourlyPrecipIn,Conditions,Clouds,dailyrainin,SolarRadiationWatts/m^2,SoftwareType,DateUTC
2013-06-10 00:00:00,71.1,70.2,30.18,NNE,18,1.0,21.0,97,0.47,,SCT,0.00,0.00,VWS V14.01,2013-06-10 04:00:00,
2013-06-10 00:01:00,71.1,70.2,30.18,ENE,58,0.0,7.0,97,0.33,,SCT,0.08,0.00,VWS V14.01,2013-06-10 04:01:00,
2013-06-10 00:06:00,71.1,70.2,30.18,West,263,1.0,7.0,97,0.37,,SCT,0.12,0.00,VWS V14.01,2013-06-10 04:06:00,
2013-06-10 00:11:00,71.1,70.2,30.19,ENE,74,4.0,7.0,97,0.41,,SCT,0.16,0.00,VWS V14.01,2013-06-10 04:11:00,
2013-06-10 00:16:00,71.0,70.1,30.18,East,84,3.0,7.0,97,0.45,,SCT,0.20,0.00,VWS V14.01,2013-06-10 04:16:00,
2013-06-10 00:21:00,70.9,70.0,30.18,East,84,0.0,7.0,97,0.48,,SCT,0.23,0.00,VWS V14.01,2013-06-10 04:21:00,
2013-06-10 00:26:00,70.9,70.0,30.18,SE,128,1.0,7.0,97,0.51,,SCT,0.26,0.00,VWS V14.01,2013-06-10 04:26:00,
2013-06-10 00:31:00,70.9,70.0,30.18,SSE,164,1.0,7.0,97,0.54,,SCT,0.29,0.00,VWS V14.01,2013-06-10 04:31:00,
2013-06-10 00:36:00,70.9,70.0,30.17,SSE,164,2.0,7.0,97,0.57,,SCT,0.32,0.00,VWS V14.01,2013-06-10 04:36:00,
2013-06-10 00:41:00,70.9,70.0,30.17,South,190,3.0,7.0,97,0.59,,SCT,0.34,0.00,VWS V14.01,2013-06-10 04:41:00,
2013-06-10 00:46:00,70.9,70.0,30.17,South,190,1.0,7.0,97,0.61,,SCT,0.36,0.00,VWS V14.01,2013-06-10 04:46:00,
2013-06-10 00:51:00,70.8,69.9,30.17,South,190,0.0,7.0,97,0.63,,SCT,0.38,0.00,VWS V14.01,2013-06-10 04:51:00,
2013-06-10 00:56:00,70.8,69.9,30.17,South,190,0.0,1.0,97,0.39,,SCT,0.39,0.00,VWS V14.01,2013-06-10 04:56:00,
2013-06-10 01:00:00,70.8,69.9,30.17,South,190,0.0,7.0,97,0.63,,SCT,0.38,0.00,VWS V14.01,2013-06-10 05:00:00,
2013-06-10 01:01:00,70.7,69.8,30.17,South,190,0.0,2.0,97,0.41,,SCT,0.41,0.00,VWS V14.01,2013-06-10 05:01:00,
2013-06-10 01:07:00,70.7,69.8,30.17,South,190,0.0,2.0,97,0.42,,SCT,0.42,0.00,VWS V14.01,2013-06-10 05:07:00,
2013-06-10 01:12:00,70.6,69.7,30.17,South,190,0.0,2.0,97,0.43,,SCT,0.43,0.00,VWS V14.01,2013-06-10 05:12:00,
2013-06-10 01:17:00,70.6,69.7,30.16,South,190,0.0,2.0,97,0.43,,SCT,0.43,0.00,VWS V14.01,2013-06-10 05:17:00,
2013-06-10 01:22:00,70.6,69.7,30.17,South,190,0.0,2.0,97,0.43,,SCT,0.43,0.00,VWS V14.01,2013-06-10 05:22:00,
2013-06-10 01:27:00,70.6,69.7,30.17,WNW,300,4.0,5.0,97,0.43,,SCT,0.43,0.00,VWS V14.01,2013-06-10 05:27:00,
2013-06-10 01:32:00,70.6,69.7,30.17,WNW,298,2.0,5.0,97,0.43,,SCT,0.43,0.00,VWS V14.01,2013-06-10 05:32:00,
2013-06-10 01:37:00,70.5,69.6,30.17,WNW,298,3.0,5.0,97,0.43,,SCT,0.43,0.00,VWS V14.01,2013-06-10 05:37:00,
2013-06-10 01:42:00,70.5,69.6,30.17,SW,236,4.0,7.0,97,0.43,,SCT,0.43,0.00,VWS V14.01,2013-06-10 05:42:00,
2013-06-10 01:47:00,70.6,69.7,30.17,WSW,238,4.0,7.0,97,0.43,,SCT,0.43,0.00,VWS V14.01,2013-06-10 05:47:00,
2013-06-10 01:52:00,70.7,69.8,30.17,WNW,284,11.0,12.0,97,0.43,,SCT,0.43,0.00,VWS V14.01,2013-06-10 05:52:00,
2013-06-10 01:57:00,70.7,69.8,30.16,West,275,8.0,14.0,97,0.05,,SCT,0.43,0.00,VWS V14.01,2013-06-10 05:57:00,
2013-06-10 02:00:00,70.7,69.8,30.17,West,269,12.0,15.0,97,0.43,,SCT,0.43,0.00,VWS V14.01,2013-06-10 06:00:00,
2013-06-10 02:02:00,70.7,69.8,30.16,WNW,289,5.0,17.0,97,0.05,,SCT,0.43,0.00,VWS V14.01,2013-06-10 06:02:00,
2013-06-10 02:07:00,70.7,69.8,30.16,WNW,288,0.0,17.0,97,0.05,,SCT,0.43,0.00,VWS V14.01,2013-06-10 06:07:00,
2013-06-10 02:12:00,70.8,69.9,30.16,WNW,300,4.0,17.0,97,0.05,,SCT,0.43,0.00,VWS V14.01,2013-06-10 06:12:00,
2013-06-10 02:17:00,70.8,69.9,30.16,NNE,22,4.0,17.0,97,0.05,,SCT,0.43,0.00,VWS V14.01,2013-06-10 06:17:00,
2013-06-10 02:22:00,70.8,69.9,30.15,NNW,327,2.0,17.0,97,0.05,,SCT,0.43,0.00,VWS V14.01,2013-06-10 06:22:00,
2013-06-10 02:27:00,71.0,70.1,30.15,NNW,327,0.0,17.0,97,0.05,,SCT,0.43,0.00,VWS V14.01,2013-06-10 06:27:00,
2013-06-10 02:32:00,71.1,70.2,30.15,NNW,327,0.0,17.0,97,0.05,,SCT,0.43,0.00,VWS V14.01,2013-06-10 06:32:00,
2013-06-10 02:37:00,71.0,70.1,30.15,NNW,327,1.0,17.0,97,0.05,,SCT,0.43,0.00,VWS V14.01,2013-06-10 06:37:00,
2013-06-10 02:42:00,70.9,69.7,30.15,NNW,327,2.0,17.0,96,0.05,,SCT,0.43,0.00,VWS V14.01,2013-06-10 06:42:00,
2013-06-10 02:47:00,70.7,69.5,30.14,SW,236,4.0,17.0,96,0.05,,SCT,0.43,0.00,VWS V14.01,2013-06-10 06:47:00,
2013-06-10 02:52:00,70.4,69.5,30.14,SW,229,0.0,17.0,97,0.05,,SCT,0.43,0.00,VWS V14.01,2013-06-10 06:52:00,
2013-06-10 02:57:00,70.4,69.5,30.14,SW,229,0.0,1.0,97,0.00,,SCT,0.43,0.00,VWS V14.01,2013-06-10 06:57:00,
2013-06-10 03:00:00,70.4,69.5,30.14,SW,229,0.0,17.0,97,0.05,,SCT,0.43,0.00,VWS V14.01,2013-06-10 07:00:00,
2013-06-10 03:02:00,70.6,69.7,30.14,SW,229,0.0,1.0,97,0.00,,SCT,0.43,0.00,VWS V14.01,2013-06-10 07:02:00,
2013-06-10 03:07:00,70.3,69.4,30.14,SW,229,0.0,2.0,97,0.00,,SCT,0.43,0.00,VWS V14.01,2013-06-10 07:07:00,
2013-06-10 03:12:00,70.2,69.3,30.14,SW,229,0.0,2.0,97,0.00,,SCT,0.43,0.00,VWS V14.01,2013-06-10 07:12:00,
2013-06-10 03:17:00,70.3,69.4,30.13,SW,229,1.0,2.0,97,0.00,,SCT,0.43,0.00,VWS V14.01,2013-06-10 07:17:00,
2013-06-10 03:22:00,70.3,69.4,30.13,SW,229,0.0,3.0,97,0.00,,SCT,0.43,0.00,VWS V14.01,2013-06-10 07:22:00,
2013-06-10 03:27:00,70.1,69.2,30.13,SE,139,2.0,4.0,97,0.00,,SCT,0.43,0.00,VWS V14.01,2013-06-10 07:27:00,
2013-06-10 03:32:00,70.0,69.1,30.13,SE,139,1.0,4.0,97,0.00,,SCT,0.43,0.00,VWS V14.01,2013-06-10 07:32:00,
2013-06-10 03:37:00,69.9,69.0,30.14,SE,139,0.0,4.0,97,0.00,,SCT,0.43,0.00,VWS V14.01,2013-06-10 07:37:00,
2013-06-10 03:42:00,69.8,68.9,30.13,SE,139,0.0,4.0,97,0.00,,SCT,0.43,0.00,VWS V14.01,2013-06-10 07:42:00,
2013-06-10 03:47:00,69.9,69.3,30.13,SE,139,0.0,4.0,98,0.00,,SCT,0.43,0.00,VWS V14.01,2013-06-10 07:47:00,
2013-06-10 03:52:00,69.9,69.3,30.13,SE,139,0.0,4.0,98,0.00,,SCT,0.43,0.00,VWS V14.01,2013-06-10 07:52:00,
2013-06-10 03:57:00,69.9,69.3,30.13,SE,139,0.0,0.0,98,0.00,,SCT,0.43,0.00,VWS V14.01,2013-06-10 07:57:00,
2013-06-10 04:00:00,69.9,69.3,30.13,SE,139,0.0,4.0,98,0.00,,SCT,0.43,0.00,VWS V14.01,2013-06-10 08:00:00,
2013-06-10 04:02:00,70.1,69.5,30.13,SE,139,0.0,0.0,98,0.00,,SCT,0.43,0.00,VWS V14.01,2013-06-10 08:02:00,
2013-06-10 04:07:00,70.0,69.4,30.12,SE,139,2.0,4.0,98,0.00,,SCT,0.43,0.00,VWS V14.01,2013-06-10 08:07:00,
2013-06-10 04:12:00,69.9,69.3,30.12,SE,139,1.0,4.0,98,0.00,,SCT,0.43,0.00,VWS V14.01,2013-06-10 08:12:00,
2013-06-10 04:17:00,69.8,69.2,30.12,SSE,159,2.0,4.0,98,0.00,,SCT,0.43,0.00,VWS V14.01,2013-06-10 08:17:00,
2013-06-10 04:22:00,69.7,69.1,30.12,SW,215,1.0,4.0,98,0.00,,SCT,0.43,0.00,VWS V14.01,2013-06-10 08:22:00,
2013-06-10 04:27:00,69.6,69.0,30.12,SW,215,0.0,4.0,98,0.00,,SCT,0.43,0.00,VWS V14.01,2013-06-10 08:27:00,
2013-06-10 04:32:00,69.6,69.0,30.12,SW,215,1.0,4.0,98,0.00,,SCT,0.43,0.00,VWS V14.01,2013-06-10 08:32:00,
2013-06-10 04:37:00,69.7,69.1,30.12,SW,215,0.0,4.0,98,0.00,,SCT,0.43,0.00,VWS V14.01,2013-06-10 08:37:00,
2013-06-10 04:42:00,69.7,69.1,30.12,SW,215,0.0,4.0,98,0.00,,SCT,0.43,0.00,VWS V14.01,2013-06-10 08:42:00,
2013-06-10 04:47:00,69.6,69.0,30.12,SW,215,1.0,4.0,98,0.00,,SCT,0.43,0.00,VWS V14.01,2013-06-10 08:47:00,
2013-06-10 04:52:00,69.5,68.9,30.12,SW,215,0.0,4.0,98,0.00,,SCT,0.43,0.00,VWS V14.01,2013-06-10 08:52:00,
2013-06-10 04:57:00,69.6,69.0,30.11,SW,215,0.0,1.0,98,0.00,,SCT,0.43,0.00,VWS V14.01,2013-06-10 08:57:00,
2013-06-10 05:00:00,69.5,68.9,30.12,SW,215,1.0,4.0,98,0.00,,SCT,0.43,0.00,VWS V14.01,2013-06-10 09:00:00,
2013-06-10 05:02:00,69.5,68.9,30.11,SW,215,3.0,4.0,98,0.00,,SCT,0.43,0.00,VWS V14.01,2013-06-10 09:02:00,
2013-06-10 05:07:00,69.5,68.9,30.11,West,269,6.0,8.0,98,0.00,,SCT,0.43,0.00,VWS V14.01,2013-06-10 09:07:00,
2013-06-10 05:12:00,69.4,68.5,30.11,West,279,6.0,8.0,97,0.00,,SCT,0.43,0.00,VWS V14.01,2013-06-10 09:12:00,
2013-06-10 05:17:00,69.4,68.8,30.11,West,266,6.0,9.0,98,0.00,,SCT,0.43,0.00,VWS V14.01,2013-06-10 09:17:00,
2013-06-10 05:22:00,69.3,68.7,30.11,West,267,4.0,9.0,98,0.00,,SCT,0.43,0.00,VWS V14.01,2013-06-10 09:22:00,
2013-06-10 05:27:00,69.3,68.7,30.11,West,267,0.0,9.0,98,0.01,,SCT,0.44,0.00,VWS V14.01,2013-06-10 09:27:00,
2013-06-10 05:32:00,69.4,68.5,30.11,West,267,0.0,9.0,97,0.01,,SCT,0.44,0.00,VWS V14.01,2013-06-10 09:32:00,
2013-06-10 05:37:00,69.4,68.5,30.11,West,267,4.0,9.0,97,0.01,,SCT,0.44,0.00,VWS V14.01,2013-06-10 09:37:00,
2013-06-10 05:42:00,69.4,68.5,30.11,West,261,0.0,9.0,97,0.01,,SCT,0.44,0.00,VWS V14.01,2013-06-10 09:42:00,
2013-06-10 05:47:00,69.5,68.6,30.11,NE,42,4.0,9.0,97,0.01,,SCT,0.44,0.00,VWS V14.01,2013-06-10 09:47:00,
2013-06-10 05:52:00,69.6,68.7,30.11,NE,43,0.0,9.0,97,0.01,,SCT,0.44,0.00,VWS V14.01,2013-06-10 09:52:00,
2013-06-10 05:57:00,69.6,68.7,30.12,NE,43,2.0,2.0,97,0.01,,SCT,0.44,0.00,VWS V14.01,2013-06-10 09:57:00,
2013-06-10 06:00:00,69.6,68.7,30.11,NE,43,0.0,9.0,97,0.01,,SCT,0.44,0.00,VWS V14.01,2013-06-10 10:00:00,
2013-06-10 06:02:00,69.6,68.7,30.11,East,86,0.0,3.0,97,0.01,,SCT,0.44,0.00,VWS V14.01,2013-06-10 10:02:00,
2013-06-10 06:07:00,69.6,68.7,30.11,East,86,0.0,3.0,97,0.01,,SCT,0.44,0.00,VWS V14.01,2013-06-10 10:07:00,
2013-06-10 06:12:00,69.7,68.8,30.11,East,86,0.0,3.0,97,0.01,,SCT,0.44,0.00,VWS V14.01,2013-06-10 10:12:00,
2013-06-10 06:17:00,69.7,68.8,30.11,East,86,0.0,3.0,97,0.01,,SCT,0.44,0.00,VWS V14.01,2013-06-10 10:17:00,
2013-06-10 06:22:00,69.7,68.8,30.12,East,86,0.0,3.0,97,0.01,,SCT,0.44,0.00,VWS V14.01,2013-06-10 10:22:00,
2013-06-10 06:27:00,69.7,68.8,30.12,East,86,0.0,3.0,97,0.01,,SCT,0.44,0.00,VWS V14.01,2013-06-10 10:27:00,
2013-06-10 06:32:00,69.7,68.8,30.12,East,86,0.0,3.0,97,0.01,,SCT,0.44,0.00,VWS V14.01,2013-06-10 10:32:00,
2013-06-10 06:37:00,69.7,68.8,30.11,East,86,2.0,3.0,97,0.02,,SCT,0.45,5.00,VWS V14.01,2013-06-10 10:37:00,
2013-06-10 06:42:00,69.7,68.8,30.11,ESE,118,0.0,3.0,97,0.02,,SCT,0.45,5.00,VWS V14.01,2013-06-10 10:42:00,
2013-06-10 06:47:00,69.6,68.7,30.11,SSE,152,0.0,4.0,97,0.03,,SCT,0.46,5.00,VWS V14.01,2013-06-10 10:47:00,
2013-06-10 06:52:00,69.6,68.7,30.11,WSW,240,2.0,4.0,97,0.03,,SCT,0.46,9.00,VWS V14.01,2013-06-10 10:52:00,
2013-06-10 06:57:00,69.7,68.8,30.11,SW,225,2.0,4.0,97,0.02,,SCT,0.46,11.00,VWS V14.01,2013-06-10 10:57:00,
2013-06-10 07:00:00,69.6,68.7,30.11,WSW,240,3.0,4.0,97,0.03,,SCT,0.46,9.00,VWS V14.01,2013-06-10 11:00:00,
2013-06-10 07:02:00,69.9,69.3,30.11,WNW,284,2.0,7.0,98,0.02,,SCT,0.46,19.00,VWS V14.01,2013-06-10 11:02:00,
2013-06-10 07:07:00,70.0,69.4,30.11,West,280,7.0,7.0,98,0.02,,SCT,0.46,18.00,VWS V14.01,2013-06-10 11:07:00,
2013-06-10 07:12:00,70.0,69.4,30.11,WNW,284,3.0,7.0,98,0.02,,SCT,0.46,19.00,VWS V14.01,2013-06-10 11:12:00,
2013-06-10 07:17:00,70.0,69.4,30.11,West,280,6.0,8.0,98,0.02,,SCT,0.46,12.00,VWS V14.01,2013-06-10 11:17:00,
2013-06-10 07:22:00,70.0,69.4,30.11,West,280,4.0,8.0,98,0.03,,SCT,0.47,19.00,VWS V14.01,2013-06-10 11:22:00,
2013-06-10 07:27:00,70.0,69.4,30.11,WNW,288,6.0,8.0,98,0.03,,SCT,0.47,40.00,VWS V14.01,2013-06-10 11:27:00,
2013-06-10 07:32:00,70.0,69.4,30.10,West,271,7.0,8.0,98,0.03,,SCT,0.47,39.00,VWS V14.01,2013-06-10 11:32:00,
2013-06-10 07:37:00,70.1,69.5,30.10,WNW,287,5.0,9.0,98,0.03,,SCT,0.47,33.00,VWS V14.01,2013-06-10 11:37:00,
2013-06-10 07:42:00,70.1,69.5,30.10,West,279,6.0,9.0,98,0.03,,SCT,0.47,37.00,VWS V14.01,2013-06-10 11:42:00,
2013-06-10 07:47:00,70.3,69.7,30.10,NW,309,7.0,11.0,98,0.03,,SCT,0.47,42.00,VWS V14.01,2013-06-10 11:47:00,
2013-06-10 07:52:00,70.4,69.8,30.10,West,277,7.0,11.0,98,0.03,,SCT,0.47,28.00,VWS V14.01,2013-06-10 11:52:00,
2013-06-10 07:57:00,70.4,69.8,30.10,West,281,7.0,9.0,98,0.01,,SCT,0.47,30.00,VWS V14.01,2013-06-10 11:57:00,
2013-06-10 08:00:00,70.4,69.8,30.10,West,273,5.0,11.0,98,0.03,,SCT,0.47,28.00,VWS V14.01,2013-06-10 12:00:00,
2013-06-10 08:02:00,70.6,70.0,30.10,WNW,282,4.0,15.0,98,0.02,,SCT,0.48,63.00,VWS V14.01,2013-06-10 12:02:00,
2013-06-10 08:07:00,70.8,70.2,30.10,NW,304,4.0,15.0,98,0.02,,SCT,0.48,54.00,VWS V14.01,2013-06-10 12:07:00,
2013-06-10 08:12:00,71.0,70.4,30.10,NW,313,6.0,15.0,98,0.02,,SCT,0.48,53.00,VWS V14.01,2013-06-10 12:12:00,
2013-06-10 08:17:00,71.2,70.6,30.10,WNW,291,3.0,15.0,98,0.02,,SCT,0.48,123.00,VWS V14.01,2013-06-10 12:17:00,
2013-06-10 08:22:00,71.4,70.8,30.09,NW,309,3.0,15.0,98,0.02,,SCT,0.48,127.00,VWS V14.01,2013-06-10 12:22:00,
2013-06-10 08:27:00,71.7,71.1,30.09,NNW,344,5.0,15.0,98,0.02,,SCT,0.48,134.00,VWS V14.01,2013-06-10 12:27:00,
2013-06-10 08:32:00,71.8,71.2,30.09,NW,318,6.0,15.0,98,0.02,,SCT,0.48,91.00,VWS V14.01,2013-06-10 12:32:00,
2013-06-10 08:37:00,71.9,71.0,30.09,NW,307,8.0,15.0,97,0.02,,SCT,0.48,111.00,VWS V14.01,2013-06-10 12:37:00,
2013-06-10 08:42:00,71.9,71.0,30.09,NW,325,4.0,15.0,97,0.02,,SCT,0.48,91.00,VWS V14.01,2013-06-10 12:42:00,
2013-06-10 08:47:00,72.0,71.1,30.09,West,271,6.0,15.0,97,0.02,,SCT,0.48,79.00,VWS V14.01,2013-06-10 12:47:00,
2013-06-10 08:52:00,72.1,71.2,30.09,NW,309,5.0,15.0,97,0.02,,SCT,0.48,121.00,VWS V14.01,2013-06-10 12:52:00,
2013-06-10 08:57:00,72.3,71.4,30.08,West,273,3.0,11.0,97,0.01,,SCT,0.48,142.00,VWS V14.01,2013-06-10 12:57:00,
2013-06-10 09:00:00,72.1,71.2,30.09,West,281,7.0,15.0,97,0.02,,SCT,0.48,111.00,VWS V14.01,2013-06-10 13:00:00,
2013-06-10 09:02:00,72.6,71.7,30.08,WNW,298,4.0,11.0,97,0.01,,SCT,0.48,139.00,VWS V14.01,2013-06-10 13:02:00,
2013-06-10 09:07:00,72.7,71.5,30.08,NW,317,2.0,11.0,96,0.01,,SCT,0.48,120.00,VWS V14.01,2013-06-10 13:07:00,
2013-06-10 09:12:00,72.8,71.6,30.08,WNW,298,4.0,14.0,96,0.01,,SCT,0.48,118.00,VWS V14.01,2013-06-10 13:12:00,
2013-06-10 09:17:00,72.9,71.7,30.08,NW,317,8.0,14.0,96,0.01,,SCT,0.48,137.00,VWS V14.01,2013-06-10 13:17:00,
2013-06-10 09:22:00,72.9,71.7,30.08,WNW,298,12.0,14.0,96,0.01,,SCT,0.48,118.00,VWS V14.01,2013-06-10 13:22:00,
2013-06-10 09:27:00,73.0,71.8,30.08,NNW,344,4.0,14.0,96,0.01,,SCT,0.48,74.00,VWS V14.01,2013-06-10 13:27:00,
2013-06-10 09:32:00,73.1,71.9,30.08,NW,325,2.0,14.0,96,0.01,,SCT,0.48,100.00,VWS V14.01,2013-06-10 13:32:00,
2013-06-10 09:37:00,73.3,71.8,30.08,West,277,4.0,14.0,95,0.01,,SCT,0.48,81.00,VWS V14.01,2013-06-10 13:37:00,
2013-06-10 09:42:00,73.4,71.9,30.08,NW,320,4.0,14.0,95,0.01,,SCT,0.48,111.00,VWS V14.01,2013-06-10 13:42:00,
2013-06-10 09:47:00,73.4,71.9,30.07,WNW,294,2.0,14.0,95,0.01,,SCT,0.48,54.00,VWS V14.01,2013-06-10 13:47:00,
2013-06-10 09:52:00,73.6,72.1,30.07,West,276,3.0,14.0,95,0.01,,SCT,0.48,88.00,VWS V14.01,2013-06-10 13:52:00,
2013-06-10 09:57:00,73.6,72.1,30.07,West,280,3.0,13.0,95,0.00,,SCT,0.48,67.00,VWS V14.01,2013-06-10 13:57:00,
2013-06-10 10:00:00,73.6,72.1,30.07,NW,320,5.0,14.0,95,0.01,,SCT,0.48,88.00,VWS V14.01,2013-06-10 14:00:00,
2013-06-10 10:02:00,73.7,72.2,30.07,NW,309,4.0,14.0,95,0.00,,SCT,0.48,123.00,VWS V14.01,2013-06-10 14:02:00,
2013-06-10 10:07:00,73.7,72.2,30.07,NW,306,0.0,14.0,95,0.00,,SCT,0.48,211.00,VWS V14.01,2013-06-10 14:07:00,
2013-06-10 10:12:00,73.9,72.4,30.07,NW,309,7.0,14.0,95,0.00,,SCT,0.48,230.00,VWS V14.01,2013-06-10 14:12:00,
2013-06-10 10:17:00,74.2,72.4,30.06,NW,323,4.0,14.0,94,0.00,,SCT,0.48,114.00,VWS V14.01,2013-06-10 14:17:00,
2013-06-10 10:22:00,74.5,72.7,30.06,NW,306,5.0,17.0,94,0.00,,SCT,0.48,155.00,VWS V14.01,2013-06-10 14:22:00,
2013-06-10 10:27:00,74.5,72.3,30.06,NW,312,5.0,17.0,93,0.00,,SCT,0.48,213.00,VWS V14.01,2013-06-10 14:27:00,
2013-06-10 10:32:00,74.6,72.4,30.06,WNW,303,3.0,17.0,93,0.00,,SCT,0.48,241.00,VWS V14.01,2013-06-10 14:32:00,
2013-06-10 10:37:00,74.9,73.1,30.06,West,269,5.0,17.0,94,0.00,,SCT,0.48,269.00,VWS V14.01,2013-06-10 14:37:00,
2013-06-10 10:42:00,75.1,72.9,30.06,WNW,294,2.0,17.0,93,0.00,,SCT,0.48,142.00,VWS V14.01,2013-06-10 14:42:00,
2013-06-10 10:47:00,75.3,72.8,30.05,NNW,333,4.0,17.0,92,0.00,,SCT,0.48,179.00,VWS V14.01,2013-06-10 14:47:00,
2013-06-10 10:52:00,75.5,73.0,30.05,NNW,338,4.0,17.0,92,0.00,,SCT,0.48,241.00,VWS V14.01,2013-06-10 14:52:00,
2013-06-10 10:57:00,75.7,73.2,30.05,NNW,336,10.0,15.0,92,0.00,,SCT,0.48,330.00,VWS V14.01,2013-06-10 14:57:00,
2013-06-10 11:00:00,75.5,73.0,30.05,NNW,338,6.0,17.0,92,0.00,,SCT,0.48,316.00,VWS V14.01,2013-06-10 15:00:00,
2013-06-10 11:02:00,76.1,73.3,30.05,WNW,298,8.0,16.0,91,0.00,,SCT,0.48,513.00,VWS V14.01,2013-06-10 15:02:00,
2013-06-10 11:07:00,76.2,73.1,30.05,NNW,334,10.0,20.0,90,0.00,,SCT,0.48,246.00,VWS V14.01,2013-06-10 15:07:00,
2013-06-10 11:12:00,75.7,73.2,30.05,NNW,327,4.0,20.0,92,0.01,,SCT,0.49,234.00,VWS V14.01,2013-06-10 15:12:00,
2013-06-10 11:17:00,75.6,73.1,30.05,NNW,335,8.0,20.0,92,0.01,,SCT,0.49,218.00,VWS V14.01,2013-06-10 15:17:00,
2013-06-10 11:22:00,75.6,73.1,30.05,WNW,286,9.0,20.0,92,0.02,,SCT,0.50,209.00,VWS V14.01,2013-06-10 15:22:00,
2013-06-10 11:27:00,75.7,73.2,30.05,WNW,292,10.0,20.0,92,0.02,,SCT,0.50,158.00,VWS V14.01,2013-06-10 15:27:00,
2013-06-10 11:32:00,75.8,73.3,30.04,NNW,330,7.0,20.0,92,0.02,,SCT,0.50,141.00,VWS V14.01,2013-06-10 15:32:00,
2013-06-10 11:37:00,75.7,73.2,30.04,NW,316,8.0,20.0,92,0.03,,SCT,0.51,120.00,VWS V14.01,2013-06-10 15:37:00,
2013-06-10 11:42:00,75.8,73.3,30.04,NNW,333,9.0,20.0,92,0.03,,SCT,0.51,65.00,VWS V14.01,2013-06-10 15:42:00,
2013-06-10 11:47:00,75.7,72.9,30.04,NNE,20,5.0,20.0,91,0.03,,SCT,0.51,60.00,VWS V14.01,2013-06-10 15:47:00,
2013-06-10 11:52:00,75.8,73.0,30.04,North,355,11.0,20.0,91,0.04,,SCT,0.52,60.00,VWS V14.01,2013-06-10 15:52:00,
2013-06-10 11:57:00,75.7,73.2,30.04,North,351,11.0,13.0,92,0.05,,SCT,0.53,91.00,VWS V14.01,2013-06-10 15:57:00,
2013-06-10 12:00:00,75.8,73.0,30.04,North,360,7.0,20.0,91,0.04,,SCT,0.52,67.00,VWS V14.01,2013-06-10 16:00:00,
2013-06-10 12:02:00,75.5,72.7,30.03,NE,38,11.0,19.0,91,0.05,,SCT,0.53,139.00,VWS V14.01,2013-06-10 16:02:00,
2013-06-10 12:07:00,75.2,72.4,30.03,North,355,10.0,20.0,91,0.05,,SCT,0.53,197.00,VWS V14.01,2013-06-10 16:07:00,
2013-06-10 12:12:00,75.3,72.5,30.03,North,11,11.0,20.0,91,0.06,,SCT,0.54,272.00,VWS V14.01,2013-06-10 16:12:00,
2013-06-10 12:17:00,75.5,72.4,30.03,North,355,13.0,20.0,90,0.06,,SCT,0.54,360.00,VWS V14.01,2013-06-10 16:17:00,
2013-06-10 12:22:00,75.8,72.3,30.02,North,5,8.0,20.0,89,0.06,,SCT,0.54,429.00,VWS V14.01,2013-06-10 16:22:00,
2013-06-10 12:27:00,76.2,72.4,30.02,NW,326,9.0,20.0,88,0.06,,SCT,0.54,520.00,VWS V14.01,2013-06-10 16:27:00,
2013-06-10 12:32:00,76.7,72.9,30.02,NW,319,6.0,20.0,88,0.06,,SCT,0.54,519.00,VWS V14.01,2013-06-10 16:32:00,
2013-06-10 12:37:00,76.7,73.2,30.01,NNE,26,6.0,20.0,89,0.06,,SCT,0.54,731.00,VWS V14.01,2013-06-10 16:37:00,
2013-06-10 12:42:00,77.2,73.0,30.01,NNE,19,8.0,20.0,87,0.06,,SCT,0.54,812.00,VWS V14.01,2013-06-10 16:42:00,
2013-06-10 12:47:00,77.5,72.6,30.01,North,9,12.0,20.0,85,0.06,,SCT,0.54,401.00,VWS V14.01,2013-06-10 16:47:00,
2013-06-10 12:52:00,78.2,73.3,30.01,NNE,17,9.0,20.0,85,0.06,,SCT,0.54,401.00,VWS V14.01,2013-06-10 16:52:00,
2013-06-10 12:57:00,78.4,73.5,30.01,NNE,17,4.0,16.0,85,0.02,,SCT,0.54,418.00,VWS V14.01,2013-06-10 16:57:00,
2013-06-10 13:00:00,78.2,73.3,30.01,North,355,6.0,20.0,85,0.06,,SCT,0.54,401.00,VWS V14.01,2013-06-10 17:00:00,
2013-06-10 13:02:00,78.6,73.0,30.00,NNE,14,14.0,22.0,83,0.02,,SCT,0.54,397.00,VWS V14.01,2013-06-10 17:02:00,
2013-06-10 13:07:00,79.0,73.0,30.00,North,350,11.0,22.0,82,0.02,,SCT,0.54,464.00,VWS V14.01,2013-06-10 17:07:00,
2013-06-10 13:12:00,78.7,72.8,30.00,North,355,12.0,22.0,82,0.02,,SCT,0.54,557.00,VWS V14.01,2013-06-10 17:12:00,
2013-06-10 13:17:00,78.7,73.1,29.99,North,5,14.0,22.0,83,0.02,,SCT,0.54,557.00,VWS V14.01,2013-06-10 17:17:00,
2013-06-10 13:22:00,78.9,73.7,29.99,NNE,15,17.0,22.0,84,0.02,,SCT,0.54,557.00,VWS V14.01,2013-06-10 17:22:00,
2013-06-10 13:27:00,79.3,73.7,29.99,NNE,28,7.0,22.0,83,0.02,,SCT,0.54,1007.00,VWS V14.01,2013-06-10 17:27:00,
2013-06-10 13:32:00,79.5,73.5,29.99,NNW,340,11.0,22.0,82,0.02,,SCT,0.54,1201.00,VWS V14.01,2013-06-10 17:32:00,
2013-06-10 13:37:00,79.6,73.3,29.99,NNE,15,7.0,22.0,81,0.02,,SCT,0.54,230.00,VWS V14.01,2013-06-10 17:37:00,
2013-06-10 13:42:00,78.6,73.4,29.99,NNW,331,4.0,22.0,84,0.02,,SCT,0.54,406.00,VWS V14.01,2013-06-10 17:42:00,
2013-06-10 13:47:00,79.2,73.6,29.99,NNW,347,3.0,22.0,83,0.02,,SCT,0.54,220.00,VWS V14.01,2013-06-10 17:47:00,
2013-06-10 13:52:00,79.1,73.5,29.98,NNE,12,10.0,22.0,83,0.02,,SCT,0.54,264.00,VWS V14.01,2013-06-10 17:52:00,
2013-06-10 13:57:00,78.3,73.1,29.98,North,9,10.0,15.0,84,0.00,,SCT,0.54,251.00,VWS V14.01,2013-06-10 17:57:00,
2013-06-10 14:00:00,79.1,73.5,29.98,NNE,22,13.0,22.0,83,0.02,,SCT,0.54,264.00,VWS V14.01,2013-06-10 18:00:00,
2013-06-10 14:02:00,77.8,73.3,29.98,NNE,25,4.0,19.0,86,0.00,,SCT,0.54,411.00,VWS V14.01,2013-06-10 18:02:00,
2013-06-10 14:07:00,78.7,73.8,29.97,North,5,13.0,19.0,85,0.00,,SCT,0.54,1136.00,VWS V14.01,2013-06-10 18:07:00,
2013-06-10 14:12:00,80.0,74.0,29.97,North,5,11.0,21.0,82,0.00,,SCT,0.54,1148.00,VWS V14.01,2013-06-10 18:12:00,
2013-06-10 14:17:00,80.9,73.8,29.97,NE,40,5.0,21.0,79,0.00,,SCT,0.54,1169.00,VWS V14.01,2013-06-10 18:17:00,
2013-06-10 14:22:00,81.1,73.6,29.96,NNE,15,9.0,28.0,78,0.00,,SCT,0.54,1042.00,VWS V14.01,2013-06-10 18:22:00,
2013-06-10 14:27:00,80.7,74.0,29.95,NNE,13,9.0,28.0,80,0.00,,SCT,0.54,320.00,VWS V14.01,2013-06-10 18:27:00,
2013-06-10 14:32:00,81.3,74.5,29.95,NNE,26,8.0,28.0,80,0.00,,SCT,0.54,554.00,VWS V14.01,2013-06-10 18:32:00,
2013-06-10 14:37:00,81.6,74.1,29.95,NNE,19,14.0,28.0,78,0.00,,SCT,0.54,336.00,VWS V14.01,2013-06-10 18:37:00,
2013-06-10 14:42:00,82.3,74.0,29.94,NW,318,4.0,28.0,76,0.00,,SCT,0.54,970.00,VWS V14.01,2013-06-10 18:42:00,
2013-06-10 14:47:00,82.0,73.7,29.94,North,350,7.0,28.0,76,0.00,,SCT,0.54,211.00,VWS V14.01,2013-06-10 18:47:00,
2013-06-10 14:52:00,82.1,74.2,29.94,ENE,57,8.0,28.0,77,0.00,,SCT,0.54,995.00,VWS V14.01,2013-06-10 18:52:00,
2013-06-10 14:57:00,82.4,74.1,29.94,North,11,4.0,20.0,76,0.00,,SCT,0.54,995.00,VWS V14.01,2013-06-10 18:57:00,
2013-06-10 15:00:00,82.1,74.2,29.94,ENE,57,8.0,28.0,77,0.00,,SCT,0.54,995.00,VWS V14.01,2013-06-10 19:00:00,
2013-06-10 15:02:00,83.6,74.0,29.94,NNE,25,16.0,20.0,73,0.00,,SCT,0.54,930.00,VWS V14.01,2013-06-10 19:02:00,
2013-06-10 15:07:00,82.5,73.8,29.94,NNW,346,8.0,20.0,75,0.01,,SCT,0.55,367.00,VWS V14.01,2013-06-10 19:07:00,
2013-06-10 15:12:00,81.7,73.8,29.93,NW,312,5.0,20.0,77,0.01,,SCT,0.55,445.00,VWS V14.01,2013-06-10 19:12:00,
2013-06-10 15:17:00,81.6,74.1,29.93,NNW,329,6.0,20.0,78,0.01,,SCT,0.55,766.00,VWS V14.01,2013-06-10 19:17:00,
2013-06-10 15:22:00,82.4,74.1,29.92,NNW,328,5.0,20.0,76,0.01,,SCT,0.55,1048.00,VWS V14.01,2013-06-10 19:22:00,
2013-06-10 15:27:00,83.6,74.0,29.92,North,9,7.0,20.0,73,0.01,,SCT,0.55,988.00,VWS V14.01,2013-06-10 19:27:00,
2013-06-10 15:33:00,83.5,73.9,29.92,North,5,11.0,20.0,73,0.01,,SCT,0.55,411.00,VWS V14.01,2013-06-10 19:33:00,
2013-06-10 15:38:00,82.8,74.1,29.92,NW,315,2.0,20.0,75,0.01,,SCT,0.55,244.00,VWS V14.01,2013-06-10 19:38:00,
2013-06-10 15:43:00,81.8,73.5,29.92,NNW,329,17.0,20.0,76,0.01,,SCT,0.55,668.00,VWS V14.01,2013-06-10 19:43:00,
2013-06-10 15:48:00,81.7,73.4,29.92,North,10,3.0,20.0,76,0.01,,SCT,0.55,186.00,VWS V14.01,2013-06-10 19:48:00,
2013-06-10 15:52:00,81.8,73.5,29.92,NW,325,12.0,20.0,76,0.01,,SCT,0.55,888.00,VWS V14.01,2013-06-10 19:52:00,
2013-06-10 15:57:00,82.1,73.4,29.91,North,355,12.0,17.0,75,0.01,,SCT,0.55,434.00,VWS V14.01,2013-06-10 19:57:00,
2013-06-10 16:00:00,81.8,73.5,29.92,NW,325,12.0,20.0,76,0.01,,SCT,0.55,888.00,VWS V14.01,2013-06-10 20:00:00,
2013-06-10 16:02:00,82.4,74.1,29.91,NW,315,7.0,17.0,76,0.01,,SCT,0.55,380.00,VWS V14.01,2013-06-10 20:02:00,
2013-06-10 16:07:00,82.1,73.4,29.91,NNW,335,5.0,17.0,75,0.01,,SCT,0.55,731.00,VWS V14.01,2013-06-10 20:07:00,
2013-06-10 16:12:00,82.0,72.9,29.91,NNW,331,3.0,20.0,74,0.01,,SCT,0.55,195.00,VWS V14.01,2013-06-10 20:12:00,
2013-06-10 16:17:00,81.8,72.7,29.91,North,355,9.0,20.0,74,0.01,,SCT,0.55,225.00,VWS V14.01,2013-06-10 20:17:00,
2013-06-10 16:22:00,82.1,71.8,29.91,NNW,338,16.0,20.0,71,0.01,,SCT,0.55,142.00,VWS V14.01,2013-06-10 20:22:00,
2013-06-10 16:27:00,82.0,72.1,29.91,NNW,344,10.0,24.0,72,0.01,,SCT,0.55,244.00,VWS V14.01,2013-06-10 20:27:00,
2013-06-10 16:32:00,82.4,72.1,29.90,NNE,13,7.0,24.0,71,0.01,,SCT,0.55,232.00,VWS V14.01,2013-06-10 20:32:00,
2013-06-10 16:37:00,82.5,72.6,29.90,NNW,328,12.0,24.0,72,0.01,,SCT,0.55,232.00,VWS V14.01,2013-06-10 20:37:00,
2013-06-10 16:42:00,82.8,72.4,29.90,NE,43,14.0,24.0,71,0.01,,SCT,0.55,679.00,VWS V14.01,2013-06-10 20:42:00,
2013-06-10 16:47:00,83.6,73.2,29.90,NW,318,8.0,24.0,71,0.01,,SCT,0.55,675.00,VWS V14.01,2013-06-10 20:47:00,
2013-06-10 16:52:00,83.5,73.1,29.90,NNW,346,2.0,24.0,71,0.01,,SCT,0.55,670.00,VWS V14.01,2013-06-10 20:52:00,
2013-06-10 16:57:00,83.1,72.7,29.90,North,5,12.0,12.0,71,0.00,,SCT,0.55,178.00,VWS V14.01,2013-06-10 20:57:00,
2013-06-10 17:00:00,83.5,73.1,29.90,NE,34,6.0,24.0,71,0.01,,SCT,0.55,670.00,VWS V14.01,2013-06-10 21:00:00,
2013-06-10 17:02:00,82.5,72.2,29.90,NNW,347,8.0,17.0,71,0.00,,SCT,0.55,262.00,VWS V14.01,2013-06-10 21:02:00,
2013-06-10 17:07:00,83.1,71.9,29.90,North,360,10.0,20.0,69,0.00,,SCT,0.55,155.00,VWS V14.01,2013-06-10 21:07:00,
2013-06-10 17:12:00,82.8,71.6,29.89,North,10,15.0,23.0,69,0.00,,SCT,0.55,171.00,VWS V14.01,2013-06-10 21:12:00,
2013-06-10 17:17:00,82.7,71.9,29.89,NE,34,9.0,23.0,70,0.00,,SCT,0.55,102.00,VWS V14.01,2013-06-10 21:17:00,
2013-06-10 17:22:00,82.7,72.3,29.89,North,350,13.0,23.0,71,0.00,,SCT,0.55,72.00,VWS V14.01,2013-06-10 21:22:00,
2013-06-10 17:27:00,82.2,71.9,29.89,North,350,5.0,23.0,71,0.00,,SCT,0.55,40.00,VWS V14.01,2013-06-10 21:27:00,
2013-06-10 17:32:00,81.8,72.3,29.89,North,360,5.0,23.0,73,0.00,,SCT,0.55,28.00,VWS V14.01,2013-06-10 21:32:00,
2013-06-10 17:37:00,81.5,72.4,29.90,NE,38,5.0,23.0,74,0.00,,SCT,0.55,18.00,VWS V14.01,2013-06-10 21:37:00,
2013-06-10 17:42:00,80.8,72.9,29.90,ENE,58,5.0,23.0,77,0.00,,SCT,0.55,11.00,VWS V14.01,2013-06-10 21:42:00,
2013-06-10 17:47:00,79.5,73.5,29.91,NNE,27,14.0,23.0,82,0.02,,SCT,0.57,7.00,VWS V14.01,2013-06-10 21:47:00,
2013-06-10 17:52:00,77.0,72.2,29.91,NNE,15,13.0,23.0,85,0.04,,SCT,0.59,65.00,VWS V14.01,2013-06-10 21:52:00,
2013-06-10 17:57:00,74.6,71.2,29.90,North,5,9.0,12.0,89,0.06,,SCT,0.61,211.00,VWS V14.01,2013-06-10 21:57:00,
2013-06-10 18:00:00,76.9,72.1,29.91,NNE,28,11.0,23.0,85,0.04,,SCT,0.59,65.00,VWS V14.01,2013-06-10 22:00:00,
2013-06-10 18:02:00,74.3,71.8,29.90,NE,42,8.0,15.0,92,0.08,,SCT,0.63,276.00,VWS V14.01,2013-06-10 22:02:00,
2013-06-10 18:07:00,74.4,71.6,29.90,NNE,21,9.0,15.0,91,0.10,,SCT,0.65,320.00,VWS V14.01,2013-06-10 22:07:00,
2013-06-10 18:12:00,74.9,72.1,29.90,NNE,16,2.0,15.0,91,0.12,,SCT,0.67,271.00,VWS V14.01,2013-06-10 22:12:00,
2013-06-10 18:17:00,74.6,70.8,29.91,NNE,29,8.0,16.0,88,0.13,,SCT,0.68,151.00,VWS V14.01,2013-06-10 22:17:00,
2013-06-10 18:22:00,74.4,70.9,29.91,NE,42,3.0,16.0,89,0.15,,SCT,0.70,135.00,VWS V14.01,2013-06-10 22:22:00,
2013-06-10 18:27:00,74.2,70.8,29.92,NNE,23,4.0,16.0,89,0.16,,SCT,0.71,125.00,VWS V14.01,2013-06-10 22:27:00,
2013-06-10 18:32:00,73.9,70.8,29.91,NNW,348,7.0,16.0,90,0.17,,SCT,0.72,123.00,VWS V14.01,2013-06-10 22:32:00,
2013-06-10 18:37:00,73.7,70.6,29.91,NNW,346,6.0,16.0,90,0.18,,SCT,0.73,77.00,VWS V14.01,2013-06-10 22:37:00,
2013-06-10 18:42:00,73.5,70.4,29.91,NNW,340,3.0,16.0,90,0.19,,SCT,0.74,46.00,VWS V14.01,2013-06-10 22:42:00,
2013-06-10 18:47:00,73.5,70.4,29.91,NNE,17,7.0,16.0,90,0.20,,SCT,0.75,49.00,VWS V14.01,2013-06-10 22:47:00,
2013-06-10 18:52:00,73.6,70.5,29.90,NE,39,4.0,16.0,90,0.21,,SCT,0.76,33.00,VWS V14.01,2013-06-10 22:52:00,
2013-06-10 18:57:00,73.4,70.6,29.90,NE,41,2.0,8.0,91,0.18,,SCT,0.77,19.00,VWS V14.01,2013-06-10 22:57:00,
2013-06-10 19:00:00,73.6,70.5,29.90,NE,42,4.0,16.0,90,0.21,,SCT,0.76,33.00,VWS V14.01,2013-06-10 23:00:00,
2013-06-10 19:02:00,73.0,70.2,29.90,NE,45,4.0,8.0,91,0.18,,SCT,0.77,23.00,VWS V14.01,2013-06-10 23:02:00,
2013-06-10 19:07:00,72.8,70.3,29.91,NNE,29,5.0,8.0,92,0.19,,SCT,0.78,44.00,VWS V14.01,2013-06-10 23:07:00,
2013-06-10 19:12:00,72.8,70.3,29.90,North,5,2.0,8.0,92,0.19,,SCT,0.78,62.00,VWS V14.01,2013-06-10 23:12:00,
2013-06-10 19:17:00,72.9,70.8,29.91,NNE,28,2.0,8.0,93,0.20,,SCT,0.79,51.00,VWS V14.01,2013-06-10 23:17:00,
2013-06-10 19:22:00,72.9,70.4,29.92,NNE,21,4.0,8.0,92,0.20,,SCT,0.79,67.00,VWS V14.01,2013-06-10 23:22:00,
2013-06-10 19:27:00,73.0,70.5,29.92,NNE,26,5.0,9.0,92,0.20,,SCT,0.79,62.00,VWS V14.01,2013-06-10 23:27:00,
2013-06-10 19:32:00,72.7,70.2,29.92,NNW,336,3.0,9.0,92,0.20,,SCT,0.79,40.00,VWS V14.01,2013-06-10 23:32:00,
2013-06-10 19:37:00,72.6,70.2,29.91,NNW,338,0.0,9.0,92,0.21,,SCT,0.80,67.00,VWS V14.01,2013-06-10 23:37:00,
2013-06-10 19:42:00,72.4,70.6,29.92,NNW,338,3.0,9.0,94,0.21,,SCT,0.80,79.00,VWS V14.01,2013-06-10 23:42:00,
2013-06-10 19:47:00,72.7,70.9,29.92,NNW,338,1.0,9.0,94,0.21,,SCT,0.80,60.00,VWS V14.01,2013-06-10 23:47:00,
2013-06-10 19:52:00,73.0,70.9,29.92,NNW,346,3.0,9.0,93,0.21,,SCT,0.80,39.00,VWS V14.01,2013-06-10 23:52:00,
2013-06-10 19:57:00,73.1,70.6,29.92,NNW,342,2.0,6.0,92,0.04,,SCT,0.80,39.00,VWS V14.01,2013-06-10 23:57:00,
2013-06-10 20:00:00,73.0,70.9,29.92,NNW,346,2.0,9.0,93,0.21,,SCT,0.80,35.00,VWS V14.01,2013-06-11 00:00:00,
2013-06-10 20:02:00,73.0,70.5,29.91,NNW,335,4.0,6.0,92,0.04,,SCT,0.80,28.00,VWS V14.01,2013-06-11 00:02:00,
2013-06-10 20:07:00,72.7,70.2,29.92,NNE,21,3.0,6.0,92,0.04,,SCT,0.80,25.00,VWS V14.01,2013-06-11 00:07:00,
2013-06-10 20:12:00,72.8,70.3,29.92,NNE,31,2.0,7.0,92,0.04,,SCT,0.80,23.00,VWS V14.01,2013-06-11 00:12:00,
2013-06-10 20:17:00,72.6,69.8,29.92,NNW,348,5.0,8.0,91,0.04,,SCT,0.80,21.00,VWS V14.01,2013-06-11 00:17:00,
2013-06-10 20:22:00,72.3,69.8,29.92,NNE,13,4.0,8.0,92,0.04,,SCT,0.80,18.00,VWS V14.01,2013-06-11 00:22:00,
2013-06-10 20:27:00,72.0,69.6,29.93,North,360,4.0,8.0,92,0.04,,SCT,0.80,12.00,VWS V14.01,2013-06-11 00:27:00,
2013-06-10 20:32:00,71.9,69.4,29.92,North,5,5.0,8.0,92,0.04,,SCT,0.80,7.00,VWS V14.01,2013-06-11 00:32:00,
2013-06-10 20:37:00,71.8,69.7,29.93,NNE,31,7.0,11.0,93,0.04,,SCT,0.80,5.00,VWS V14.01,2013-06-11 00:37:00,
2013-06-10 20:42:00,71.7,69.6,29.93,NNW,341,5.0,11.0,93,0.04,,SCT,0.80,0.00,VWS V14.01,2013-06-11 00:42:00,
2013-06-10 20:47:00,71.6,69.5,29.92,NNE,19,4.0,11.0,93,0.04,,SCT,0.80,0.00,VWS V14.01,2013-06-11 00:47:00,
2013-06-10 20:52:00,71.6,69.5,29.93,NNE,32,4.0,11.0,93,0.04,,SCT,0.80,0.00,VWS V14.01,2013-06-11 00:52:00,
2013-06-10 20:57:00,71.7,69.6,29.92,NNE,26,5.0,11.0,93,0.00,,SCT,0.80,0.00,VWS V14.01,2013-06-11 00:57:00,
2013-06-10 21:00:00,71.6,69.5,29.93,NNE,26,5.0,11.0,93,0.04,,SCT,0.80,0.00,VWS V14.01,2013-06-11 01:00:00,
2013-06-10 21:02:00,71.7,69.6,29.92,North,5,4.0,11.0,93,0.00,,SCT,0.80,0.00,VWS V14.01,2013-06-11 01:02:00,
2013-06-10 21:07:00,71.7,69.6,29.92,NNW,348,6.0,11.0,93,0.00,,SCT,0.80,0.00,VWS V14.01,2013-06-11 01:07:00,
2013-06-10 21:12:00,71.6,69.8,29.92,North,355,5.0,11.0,94,0.00,,SCT,0.80,0.00,VWS V14.01,2013-06-11 01:12:00,
2013-06-10 21:17:00,71.5,69.7,29.92,North,9,3.0,11.0,94,0.00,,SCT,0.80,0.00,VWS V14.01,2013-06-11 01:17:00,
2013-06-10 21:22:00,71.6,69.8,29.92,North,350,4.0,11.0,94,0.00,,SCT,0.80,0.00,VWS V14.01,2013-06-11 01:22:00,
2013-06-10 21:27:00,71.5,69.4,29.93,NNW,333,6.0,11.0,93,0.00,,SCT,0.80,0.00,VWS V14.01,2013-06-11 01:27:00,
2013-06-10 21:32:00,71.4,69.3,29.93,NNW,335,4.0,11.0,93,0.00,,SCT,0.80,0.00,VWS V14.01,2013-06-11 01:32:00,
2013-06-10 21:37:00,71.2,69.1,29.93,NNE,19,6.0,11.0,93,0.00,,SCT,0.80,0.00,VWS V14.01,2013-06-11 01:37:00,
2013-06-10 21:42:00,71.1,69.0,29.93,NNW,343,1.0,11.0,93,0.00,,SCT,0.80,0.00,VWS V14.01,2013-06-11 01:42:00,
2013-06-10 21:47:00,71.0,69.2,29.93,NNW,346,6.0,11.0,94,0.00,,SCT,0.80,0.00,VWS V14.01,2013-06-11 01:47:00,
2013-06-10 21:52:00,71.1,69.3,29.93,North,5,6.0,11.0,94,0.00,,SCT,0.80,0.00,VWS V14.01,2013-06-11 01:52:00,
2013-06-10 21:57:00,71.2,69.1,29.93,North,9,6.0,10.0,93,0.00,,SCT,0.80,0.00,VWS V14.01,2013-06-11 01:57:00,
2013-06-10 22:00:00,71.1,69.3,29.93,North,5,5.0,11.0,94,0.00,,SCT,0.80,0.00,VWS V14.01,2013-06-11 02:00:00,
2013-06-10 22:02:00,71.3,69.2,29.94,NNE,32,5.0,10.0,93,0.00,,SCT,0.80,0.00,VWS V14.01,2013-06-11 02:02:00,
2013-06-10 22:07:00,71.1,69.0,29.94,NNE,26,9.0,11.0,93,0.00,,SCT,0.80,0.00,VWS V14.01,2013-06-11 02:07:00,
2013-06-10 22:12:00,71.1,69.0,29.94,NNE,22,4.0,11.0,93,0.00,,SCT,0.80,0.00,VWS V14.01,2013-06-11 02:12:00,
2013-06-10 22:17:00,71.0,69.2,29.94,NNW,333,2.0,11.0,94,0.00,,SCT,0.80,0.00,VWS V14.01,2013-06-11 02:17:00,
2013-06-10 22:22:00,70.7,68.9,29.94,North,349,3.0,11.0,94,0.00,,SCT,0.80,0.00,VWS V14.01,2013-06-11 02:22:00,
2013-06-10 22:27:00,70.6,68.8,29.94,North,355,0.0,11.0,94,0.00,,SCT,0.80,0.00,VWS V14.01,2013-06-11 02:27:00,
2013-06-10 22:32:00,70.5,68.7,29.94,NNE,30,2.0,11.0,94,0.00,,SCT,0.80,0.00,VWS V14.01,2013-06-11 02:32:00,
2013-06-10 22:37:00,70.4,68.9,29.94,NNE,15,8.0,11.0,95,0.00,,SCT,0.80,0.00,VWS V14.01,2013-06-11 02:37:00,
2013-06-10 22:42:00,70.4,68.6,29.94,NNE,21,5.0,11.0,94,0.00,,SCT,0.80,0.00,VWS V14.01,2013-06-11 02:42:00,
2013-06-10 22:47:00,70.5,68.7,29.95,North,11,4.0,11.0,94,0.00,,SCT,0.80,0.00,VWS V14.01,2013-06-11 02:47:00,
2013-06-10 22:52:00,70.4,68.6,29.94,North,5,6.0,11.0,94,0.00,,SCT,0.80,0.00,VWS V14.01,2013-06-11 02:52:00,
2013-06-10 22:57:00,70.4,68.6,29.95,NE,40,4.0,9.0,94,0.00,,SCT,0.80,0.00,VWS V14.01,2013-06-11 02:57:00,
2013-06-10 23:00:00,70.5,68.7,29.95,NE,41,5.0,11.0,94,0.00,,SCT,0.80,0.00,VWS V14.01,2013-06-11 03:00:00,
2013-06-10 23:02:00,70.3,68.8,29.95,North,5,5.0,9.0,95,0.00,,SCT,0.80,0.00,VWS V14.01,2013-06-11 03:02:00,
2013-06-10 23:07:00,70.2,68.7,29.95,North,355,6.0,9.0,95,0.00,,SCT,0.80,0.00,VWS V14.01,2013-06-11 03:07:00,
2013-06-10 23:12:00,70.1,68.6,29.95,North,11,4.0,11.0,95,0.00,,SCT,0.80,0.00,VWS V14.01,2013-06-11 03:12:00,
2013-06-10 23:17:00,70.0,68.5,29.95,NE,34,5.0,11.0,95,0.00,,SCT,0.80,0.00,VWS V14.01,2013-06-11 03:17:00,
2013-06-10 23:22:00,69.9,68.4,29.95,NNE,32,7.0,13.0,95,0.00,,SCT,0.80,0.00,VWS V14.01,2013-06-11 03:22:00,
2013-06-10 23:27:00,69.8,68.3,29.95,NE,42,6.0,13.0,95,0.00,,SCT,0.80,0.00,VWS V14.01,2013-06-11 03:27:00,
2013-06-10 23:32:00,69.7,68.2,29.95,NNE,19,9.0,13.0,95,0.00,,SCT,0.80,0.00,VWS V14.01,2013-06-11 03:32:00,
2013-06-10 23:37:00,69.6,68.1,29.95,North,11,7.0,13.0,95,0.00,,SCT,0.80,0.00,VWS V14.01,2013-06-11 03:37:00,
2013-06-10 23:42:00,69.5,68.0,29.95,North,10,5.0,13.0,95,0.00,,SCT,0.80,0.00,VWS V14.01,2013-06-11 03:42:00,
2013-06-10 23:47:00,69.5,68.3,29.95,NNE,30,2.0,13.0,96,0.00,,SCT,0.80,0.00,VWS V14.01,2013-06-11 03:47:00,
2013-06-10 23:52:00,69.4,68.2,29.95,NNE,23,4.0,13.0,96,0.00,,SCT,0.80,0.00,VWS V14.01,2013-06-11 03:52:00,
2013-06-10 23:57:00,69.4,68.2,29.95,NNE,25,5.0,8.0,96,0.00,,SCT,0.00,0.00,VWS V14.01,2013-06-11 03:57:00,